Village Green, Pennsylvania
Current Conditions -  °F | °C
As of 3:54 AM on Friday 19 Dec 2014 (Local Time) from KPHL Reporting Station
Overcast Overcast  
Wind Chill: 30°   Ceiling: 3400
Heat Index: 37°   Visibility: 10mi
Dew Point: 25°   Wind: 9mph
Humidity: 62%   Direction: 280°W
Pressure: 30.05"   Gusts: NA
Location:  39.8463°N, 75.374°W
Report Text: KPHL 190854Z 28008KT 10SM OVC034 03/M04 A3005 RMK AO2 SLP174 T00281039 50003
Loading
Personal Weather Stations






























Interactive Weather Map New forecast layout! Learn more

10-Day Weather Forecast

Advertisements
Track Severe Weather on mobile